createdAt,value
2016-08-22T00:00:27.913Z,14.51
2016-08-22T00:01:27.936Z,14.45
2016-08-22T00:02:27.966Z,14.43
2016-08-22T00:03:42.921Z,14.47
2016-08-22T00:04:28.011Z,14.52
2016-08-22T00:05:28.036Z,14.52
2016-08-22T00:06:28.067Z,14.5
2016-08-22T00:07:28.086Z,14.5
2016-08-22T00:08:28.812Z,14.46
2016-08-22T00:09:28.138Z,14.36
2016-08-22T00:10:28.159Z,14.32
2016-08-22T00:11:28.187Z,14.39
2016-08-22T00:12:28.225Z,14.32
2016-08-22T00:13:28.232Z,14.37
2016-08-22T00:14:43.184Z,14.43
2016-08-22T00:15:43.209Z,14.45
2016-08-22T00:16:28.309Z,14.46
2016-08-22T00:17:28.341Z,14.4
2016-08-22T00:18:28.363Z,14.39
2016-08-22T00:19:28.388Z,14.37
2016-08-22T00:20:28.421Z,14.43
2016-08-22T00:21:28.482Z,14.4
2016-08-22T00:22:28.461Z,14.39
2016-08-22T00:23:28.481Z,14.46
2016-08-22T00:24:28.508Z,14.52
2016-08-22T00:25:28.548Z,14.45
2016-08-22T00:26:28.552Z,14.51
2016-08-22T00:27:28.583Z,14.51
2016-08-22T00:28:28.613Z,14.5
2016-08-22T00:29:28.630Z,14.54
2016-08-22T00:30:43.583Z,14.52
2016-08-22T00:31:28.688Z,14.46
2016-08-22T00:32:28.710Z,14.5
2016-08-22T00:33:28.733Z,14.51
2016-08-22T00:34:28.763Z,14.62
2016-08-22T00:35:28.790Z,14.61
2016-08-22T00:36:28.807Z,14.57
2016-08-22T00:37:28.835Z,14.69
2016-08-22T00:38:29.558Z,14.6
2016-08-22T00:40:28.903Z,14.62
2016-08-22T00:41:28.932Z,14.61
2016-08-22T00:42:28.958Z,14.57
2016-08-22T00:43:28.988Z,14.51
2016-08-22T00:44:29.011Z,14.55
2016-08-22T00:45:43.956Z,14.68
2016-08-22T00:46:29.058Z,14.58
2016-08-22T00:47:29.133Z,14.58
2016-08-22T00:48:29.107Z,14.55
2016-08-22T00:49:29.139Z,14.55
2016-08-22T00:50:29.152Z,14.55
2016-08-22T00:51:29.187Z,14.62
2016-08-22T00:52:29.208Z,14.52
2016-08-22T00:53:29.246Z,14.68
2016-08-22T00:55:29.281Z,14.52
2016-08-22T00:57:44.260Z,14.57
2016-08-22T00:58:44.282Z,14.65
2016-08-22T00:59:29.384Z,14.6
2016-08-22T01:00:29.406Z,14.52
2016-08-22T01:01:29.438Z,14.55
2016-08-22T01:02:29.457Z,14.64
2016-08-22T01:03:29.485Z,14.58
2016-08-22T01:04:29.504Z,14.65
2016-08-22T01:05:29.535Z,14.61
2016-08-22T01:06:29.558Z,14.65
2016-08-22T01:07:29.593Z,14.62
2016-08-22T01:08:29.610Z,14.62
2016-08-22T01:09:29.633Z,14.65
2016-08-22T01:10:29.647Z,14.6
2016-08-22T01:11:29.682Z,14.73
2016-08-22T01:12:29.710Z,14.69
2016-08-22T01:13:29.731Z,14.61
2016-08-22T01:14:29.767Z,14.69
2016-08-22T01:15:44.703Z,14.65
2016-08-22T01:16:29.798Z,14.62
2016-08-22T01:17:44.749Z,14.72
2016-08-22T01:18:29.859Z,14.77
2016-08-22T01:19:29.940Z,14.75
2016-08-22T01:20:29.900Z,14.69
2016-08-22T01:21:29.928Z,14.7
2016-08-22T01:22:29.956Z,14.72
2016-08-22T01:23:29.977Z,14.73
2016-08-22T01:24:29.999Z,14.69
2016-08-22T01:25:30.024Z,14.8
2016-08-22T01:26:30.053Z,14.8
2016-08-22T01:27:30.127Z,14.81
2016-08-22T01:28:30.125Z,14.78
2016-08-22T01:29:30.130Z,14.7
2016-08-22T01:30:45.076Z,14.65
2016-08-22T01:31:30.181Z,14.68
2016-08-22T01:33:45.148Z,14.75
2016-08-22T01:34:30.252Z,14.6
2016-08-22T01:35:30.280Z,14.64
2016-08-22T01:36:30.316Z,14.62
2016-08-22T01:37:30.323Z,14.64
2016-08-22T01:38:30.347Z,14.65
2016-08-22T01:39:30.376Z,14.65
2016-08-22T01:40:30.404Z,14.6
2016-08-22T01:41:30.422Z,14.61
2016-08-22T01:42:30.448Z,14.61
2016-08-22T01:43:30.476Z,14.65
2016-08-22T01:44:30.505Z,14.58
2016-08-22T01:45:45.449Z,14.6
2016-08-22T01:46:30.547Z,14.52
2016-08-22T01:47:30.570Z,14.58
2016-08-22T01:48:30.608Z,14.52
2016-08-22T01:49:45.544Z,14.51
2016-08-22T01:50:30.696Z,14.54
2016-08-22T01:51:30.671Z,14.61
2016-08-22T01:52:30.698Z,14.5
2016-08-22T01:53:30.721Z,14.51
2016-08-22T01:54:30.747Z,14.51
2016-08-22T01:55:30.771Z,14.5
2016-08-22T01:56:30.797Z,14.54
2016-08-22T01:57:30.823Z,14.5
2016-08-22T01:58:30.845Z,14.6
2016-08-22T01:59:30.867Z,14.6
2016-08-22T02:00:30.898Z,14.55
2016-08-22T02:01:30.914Z,14.51
2016-08-22T02:02:30.948Z,14.5
2016-08-22T02:03:30.981Z,14.5
2016-08-22T02:04:30.998Z,14.58
2016-08-22T02:05:45.947Z,14.55
2016-08-22T02:06:45.978Z,14.54
2016-08-22T02:07:31.072Z,14.46
2016-08-22T02:08:31.099Z,14.4
2016-08-22T02:09:31.132Z,14.45
2016-08-22T02:10:31.144Z,14.47
2016-08-22T02:11:31.167Z,14.51
2016-08-22T02:13:31.220Z,14.4
2016-08-22T02:14:31.246Z,14.42
2016-08-22T02:15:31.273Z,14.52
2016-08-22T02:16:31.292Z,14.47
2016-08-22T02:17:46.252Z,14.45
2016-08-22T02:18:46.268Z,14.45
2016-08-22T02:19:31.377Z,14.47
2016-08-22T02:20:46.316Z,14.54
2016-08-22T02:21:46.338Z,14.51
2016-08-22T02:22:31.492Z,14.55
2016-08-22T02:23:31.472Z,14.54
2016-08-22T02:24:31.493Z,14.55
2016-08-22T02:25:31.517Z,14.55
2016-08-22T02:26:31.548Z,14.47
2016-08-22T02:27:31.562Z,14.42
2016-08-22T02:28:31.639Z,14.51
2016-08-22T02:29:32.304Z,14.5
2016-08-22T02:31:32.359Z,14.54
2016-08-22T02:32:31.694Z,14.51
2016-08-22T02:33:46.637Z,14.4
2016-08-22T02:34:31.750Z,14.5
2016-08-22T02:35:31.769Z,14.42
2016-08-22T02:36:31.789Z,14.42
2016-08-22T02:37:46.735Z,14.52
2016-08-22T02:38:31.840Z,14.45
2016-08-22T02:39:31.868Z,14.42
2016-08-22T02:40:31.886Z,14.39
2016-08-22T02:41:31.911Z,14.4
2016-08-22T02:42:31.938Z,14.4
2016-08-22T02:43:31.960Z,14.35
2016-08-22T02:44:31.982Z,14.39
2016-08-22T02:45:32.015Z,14.33
2016-08-22T02:46:32.031Z,14.32
2016-08-22T02:47:32.056Z,14.28
2016-08-22T02:48:32.082Z,14.32
2016-08-22T02:49:32.110Z,14.33
2016-08-22T02:50:32.132Z,14.28
2016-08-22T02:51:32.157Z,14.21
2016-08-22T02:52:47.106Z,14.2
2016-08-22T02:53:32.208Z,14.18
2016-08-22T02:54:32.232Z,14.18
2016-08-22T02:55:32.253Z,14.2
2016-08-22T02:56:32.277Z,14.21
2016-08-22T02:57:32.318Z,14.17
2016-08-22T02:58:32.334Z,14.09
2016-08-22T02:59:32.352Z,14.18
2016-08-22T03:00:32.389Z,14.06
2016-08-22T03:01:32.413Z,14.09
2016-08-22T03:02:32.429Z,14.06
2016-08-22T03:03:32.457Z,14.12
2016-08-22T03:04:32.482Z,14.07
2016-08-22T03:05:32.511Z,14.09
2016-08-22T03:06:32.533Z,14.09
2016-08-22T03:07:32.559Z,14.14
2016-08-22T03:08:47.509Z,14.06
2016-08-22T03:09:32.612Z,14.09
2016-08-22T03:10:32.628Z,14.02
2016-08-22T03:11:32.653Z,14.09
2016-08-22T03:12:32.680Z,14.04
2016-08-22T03:13:32.703Z,14.04
2016-08-22T03:14:32.729Z,14.03
2016-08-22T03:15:32.757Z,14.04
2016-08-22T03:16:32.772Z,13.96
2016-08-22T03:17:32.796Z,13.97
2016-08-22T03:19:32.849Z,13.97
2016-08-22T03:20:32.883Z,14.02
2016-08-22T03:23:32.995Z,13.95
2016-08-22T03:24:47.899Z,13.92
2016-08-22T03:25:32.996Z,13.97
2016-08-22T03:26:33.021Z,13.88
2016-08-22T03:27:33.746Z,13.95
2016-08-22T03:28:33.069Z,13.92
2016-08-22T03:29:33.092Z,13.92
2016-08-22T03:30:33.132Z,13.95
2016-08-22T03:31:33.195Z,13.96
2016-08-22T03:32:33.166Z,13.95
2016-08-22T03:33:33.189Z,13.92
2016-08-22T03:34:33.218Z,13.89
2016-08-22T03:35:33.241Z,13.95
2016-08-22T03:36:33.264Z,13.91
2016-08-22T03:38:34.007Z,13.88
2016-08-22T03:39:33.343Z,14
2016-08-22T03:40:48.290Z,14.04
2016-08-22T03:41:33.392Z,14.09
2016-08-22T03:42:33.409Z,14.14
2016-08-22T03:43:33.436Z,14.15
2016-08-22T03:44:33.463Z,14.17
2016-08-22T03:45:33.490Z,14.15
2016-08-22T03:46:33.512Z,14.28
2016-08-22T03:47:33.533Z,14.25
2016-08-22T03:48:33.559Z,14.36
2016-08-22T03:49:33.587Z,14.35
2016-08-22T03:50:33.607Z,14.39
2016-08-22T03:51:33.631Z,14.43
2016-08-22T03:52:48.585Z,14.47
2016-08-22T03:53:48.614Z,14.45
2016-08-22T03:54:33.704Z,14.47
2016-08-22T03:55:48.667Z,14.5
2016-08-22T03:57:33.786Z,14.5
2016-08-22T03:58:33.827Z,14.52
2016-08-22T03:59:33.843Z,14.64
2016-08-22T04:00:33.860Z,14.68
2016-08-22T04:01:33.880Z,14.65
2016-08-22T04:02:33.908Z,14.62
2016-08-22T04:03:33.933Z,14.51
2016-08-22T04:04:33.958Z,14.65
2016-08-22T04:05:33.990Z,14.6
2016-08-22T04:06:34.005Z,14.69
2016-08-22T04:07:34.029Z,14.62
2016-08-22T04:08:34.059Z,14.73
2016-08-22T04:09:34.086Z,14.62
2016-08-22T04:10:34.104Z,14.6
2016-08-22T04:11:34.127Z,14.65
2016-08-22T04:12:49.076Z,14.68
2016-08-22T04:13:34.176Z,14.7
2016-08-22T04:14:34.206Z,14.72
2016-08-22T04:15:34.229Z,14.73
2016-08-22T04:16:34.251Z,14.78
2016-08-22T04:17:34.293Z,14.73
2016-08-22T04:18:34.300Z,14.73
2016-08-22T04:19:34.324Z,14.77
2016-08-22T04:20:34.351Z,14.75
2016-08-22T04:21:34.374Z,14.77
2016-08-22T04:22:34.393Z,14.77
2016-08-22T04:24:34.450Z,14.77
2016-08-22T04:25:34.471Z,14.81
2016-08-22T04:26:34.551Z,14.84
2016-08-22T04:27:49.450Z,14.94
2016-08-22T04:28:34.549Z,14.86
2016-08-22T04:29:34.579Z,14.92
2016-08-22T04:30:34.600Z,14.94
2016-08-22T04:31:34.622Z,14.91
2016-08-22T04:32:34.644Z,14.89
2016-08-22T04:33:34.673Z,15.01
2016-08-22T04:34:34.707Z,14.98
2016-08-22T04:35:34.772Z,15.03
2016-08-22T04:36:34.751Z,15.07
2016-08-22T04:37:34.767Z,15.06
2016-08-22T04:39:49.747Z,15.13
2016-08-22T04:40:34.851Z,15.11
2016-08-22T04:41:49.795Z,15.21
2016-08-22T04:42:34.899Z,15.25
2016-08-22T04:43:49.851Z,15.2
2016-08-22T04:44:49.867Z,15.2
2016-08-22T04:45:34.968Z,15.32
2016-08-22T04:46:34.997Z,15.27
2016-08-22T04:47:35.018Z,15.27
2016-08-22T04:48:35.041Z,15.28
2016-08-22T04:49:35.068Z,15.31
2016-08-22T04:50:35.093Z,15.41
2016-08-22T04:51:35.118Z,15.32
2016-08-22T04:52:35.143Z,15.44
2016-08-22T04:53:35.165Z,15.43
2016-08-22T04:54:35.199Z,15.49
2016-08-22T04:55:35.229Z,15.38
2016-08-22T04:56:35.243Z,15.38
2016-08-22T04:57:35.270Z,15.38
2016-08-22T04:58:50.215Z,15.47
2016-08-22T04:59:50.237Z,15.41
2016-08-22T05:00:35.349Z,15.5
2016-08-22T05:01:35.367Z,15.46
2016-08-22T05:02:35.392Z,15.51
2016-08-22T05:03:35.414Z,15.51
2016-08-22T05:04:35.441Z,15.6
2016-08-22T05:05:35.466Z,15.56
2016-08-22T05:06:35.491Z,15.57
2016-08-22T05:07:35.517Z,15.64
2016-08-22T05:08:35.554Z,15.64
2016-08-22T05:09:35.560Z,15.69
2016-08-22T05:10:35.591Z,15.74
2016-08-22T05:11:35.613Z,15.83
2016-08-22T05:12:35.637Z,15.82
2016-08-22T05:13:35.667Z,15.8
2016-08-22T05:14:35.693Z,15.86
2016-08-22T05:15:50.642Z,15.94
2016-08-22T05:17:35.768Z,15.96
2016-08-22T05:18:35.792Z,15.96
2016-08-22T05:19:35.823Z,15.94
2016-08-22T05:20:35.845Z,16.07
2016-08-22T05:21:35.869Z,16.02
2016-08-22T05:22:35.892Z,16.11
2016-08-22T05:23:35.917Z,16.02
2016-08-22T05:24:35.947Z,16.11
2016-08-22T05:25:35.963Z,16.11
2016-08-22T05:26:35.994Z,16.07
2016-08-22T05:27:36.068Z,16.04
2016-08-22T05:28:50.968Z,16.09
2016-08-22T05:29:36.064Z,16.24
2016-08-22T05:30:51.017Z,16.23
2016-08-22T05:31:36.126Z,16.31
2016-08-22T05:32:36.147Z,16.42
2016-08-22T05:33:36.168Z,16.33
2016-08-22T05:34:36.190Z,16.41
2016-08-22T05:36:36.240Z,16.56
2016-08-22T05:37:36.268Z,16.61
2016-08-22T05:38:36.352Z,16.75
2016-08-22T05:39:36.319Z,16.88
2016-08-22T05:40:51.323Z,16.83
2016-08-22T05:41:36.374Z,16.94
2016-08-22T05:42:36.397Z,16.93
2016-08-22T05:43:36.418Z,16.83
2016-08-22T05:44:36.460Z,16.88
2016-08-22T05:45:36.473Z,16.91
2016-08-22T05:46:36.499Z,16.89
2016-08-22T05:47:51.446Z,17
2016-08-22T05:48:36.545Z,16.93
2016-08-22T05:49:36.580Z,17.14
2016-08-22T05:50:36.612Z,17.01
2016-08-22T05:51:36.626Z,17.21
2016-08-22T05:52:36.650Z,17.19
2016-08-22T05:53:36.687Z,17.37
2016-08-22T05:54:36.700Z,17.56
2016-08-22T05:55:36.730Z,17.64
2016-08-22T05:57:51.711Z,17.72
2016-08-22T05:58:36.807Z,17.64
2016-08-22T05:59:36.829Z,17.7
2016-08-22T06:00:36.858Z,17.72
2016-08-22T06:01:36.886Z,17.68
2016-08-22T06:02:51.835Z,17.7
2016-08-22T06:03:36.943Z,17.68
2016-08-22T06:04:36.967Z,17.68
2016-08-22T06:05:36.990Z,17.71
2016-08-22T06:06:37.019Z,17.79
2016-08-22T06:07:37.044Z,17.82
2016-08-22T06:08:37.061Z,17.87
2016-08-22T06:09:37.097Z,17.87
2016-08-22T06:10:37.123Z,17.89
2016-08-22T06:11:37.152Z,18
2016-08-22T06:12:37.172Z,18.1
2016-08-22T06:13:37.201Z,18.1
2016-08-22T06:14:37.232Z,18.27
2016-08-22T06:16:37.273Z,18.51
2016-08-22T06:17:37.312Z,18.57
2016-08-22T06:18:52.252Z,18.73
2016-08-22T06:19:37.363Z,18.85
2016-08-22T06:20:37.381Z,19
2016-08-22T06:21:37.406Z,19.16
2016-08-22T06:22:37.432Z,19.46
2016-08-22T06:23:37.461Z,19.95
2016-08-22T06:24:37.486Z,20.13
2016-08-22T06:25:37.518Z,20.28
2016-08-22T06:26:37.556Z,20.85
2016-08-22T06:27:37.562Z,21.44
2016-08-22T06:28:37.598Z,21.91
2016-08-22T06:29:37.624Z,22.47
2016-08-22T06:31:37.683Z,22.36
2016-08-22T06:32:37.710Z,22.17
2016-08-22T06:33:37.787Z,21.96
2016-08-22T06:34:52.698Z,21.69
2016-08-22T06:35:37.803Z,21.52
2016-08-22T06:36:37.823Z,21.34
2016-08-22T06:37:37.861Z,20.97
2016-08-22T06:38:37.882Z,20.89
2016-08-22T06:39:37.912Z,20.8
2016-08-22T06:40:37.992Z,20.69
2016-08-22T06:41:37.969Z,20.59
2016-08-22T06:42:38.006Z,20.43
2016-08-22T06:43:38.025Z,20.33
2016-08-22T06:44:38.056Z,20.24
2016-08-22T06:45:38.079Z,20.23
2016-08-22T06:46:38.115Z,20.18
2016-08-22T06:47:53.065Z,20.08
2016-08-22T06:48:38.174Z,19.96
2016-08-22T06:49:38.194Z,19.78
2016-08-22T06:50:53.149Z,19.69
2016-08-22T06:51:38.254Z,19.73
2016-08-22T06:52:38.283Z,19.69
2016-08-22T06:53:38.303Z,19.59
2016-08-22T06:54:38.339Z,19.68
2016-08-22T06:55:38.358Z,19.66
2016-08-22T06:56:38.392Z,19.78
2016-08-22T06:57:38.415Z,19.95
2016-08-22T06:58:38.446Z,19.92
2016-08-22T06:59:38.476Z,20.02
2016-08-22T07:00:38.503Z,19.98
2016-08-22T07:01:38.525Z,19.94
2016-08-22T07:02:38.563Z,19.87
2016-08-22T07:03:53.510Z,19.76
2016-08-22T07:04:38.613Z,19.55
2016-08-22T07:05:53.565Z,19.65
2016-08-22T07:07:38.697Z,19.55
2016-08-22T07:08:38.723Z,19.55
2016-08-22T07:09:38.749Z,19.39
2016-08-22T07:10:38.775Z,19.47
2016-08-22T07:11:38.803Z,19.54
2016-08-22T07:12:38.834Z,19.61
2016-08-22T07:13:38.861Z,19.63
2016-08-22T07:14:38.883Z,19.91
2016-08-22T07:15:38.910Z,19.96
2016-08-22T07:16:38.947Z,20.06
2016-08-22T07:17:38.965Z,20.13
2016-08-22T07:18:39.001Z,20.02
2016-08-22T07:19:39.025Z,20.01
2016-08-22T07:20:39.053Z,19.98
2016-08-22T07:21:39.086Z,19.96
2016-08-22T07:22:54.029Z,20.77
2016-08-22T07:23:39.127Z,21.25
2016-08-22T07:24:39.159Z,21.22
2016-08-22T07:25:39.189Z,21.38
2016-08-22T07:26:39.217Z,21.35
2016-08-22T07:27:39.254Z,21.38
2016-08-22T07:28:39.276Z,21.46
2016-08-22T07:29:39.308Z,21.37
2016-08-22T07:30:39.328Z,21.31
2016-08-22T07:31:39.361Z,20.7
2016-08-22T07:32:39.396Z,20.7
2016-08-22T07:34:54.373Z,21.24
2016-08-22T07:35:54.451Z,21.24
2016-08-22T07:36:39.502Z,21.25
2016-08-22T07:37:54.455Z,21.25
2016-08-22T07:38:39.562Z,21.27
2016-08-22T07:39:39.597Z,21.34
2016-08-22T07:40:39.618Z,21.16
2016-08-22T07:41:39.648Z,21.04
2016-08-22T07:42:39.675Z,21.06
2016-08-22T07:43:39.708Z,21.06
2016-08-22T07:44:39.739Z,21.14
2016-08-22T07:45:39.812Z,21.22
2016-08-22T07:46:39.797Z,21.13
2016-08-22T07:47:39.821Z,20.97
2016-08-22T07:48:39.842Z,20.8
2016-08-22T07:49:39.869Z,20.7
2016-08-22T07:50:39.911Z,20.58
2016-08-22T07:51:39.931Z,20.42
2016-08-22T07:52:39.962Z,20.39
2016-08-22T07:53:54.911Z,20.26
2016-08-22T07:54:40.024Z,20.36
2016-08-22T07:55:40.050Z,20.58
2016-08-22T07:56:40.071Z,20.91
2016-08-22T07:57:40.100Z,21.31
2016-08-22T07:58:40.129Z,21.96
2016-08-22T07:59:40.160Z,22.58
2016-08-22T08:00:40.190Z,23
2016-08-22T08:02:40.241Z,22.94
2016-08-22T08:03:40.271Z,22.64
2016-08-22T08:04:40.298Z,22.39
2016-08-22T08:05:40.328Z,22.07
2016-08-22T08:07:40.387Z,21.79
2016-08-22T08:08:41.115Z,21.75
2016-08-22T08:09:55.368Z,21.94
2016-08-22T08:10:40.483Z,22.21
2016-08-22T08:11:40.502Z,22.47
2016-08-22T08:12:40.535Z,22.98
2016-08-22T08:13:40.564Z,23.55
2016-08-22T08:14:40.592Z,23.93
2016-08-22T08:15:40.622Z,24.49
2016-08-22T08:16:40.656Z,24.6
2016-08-22T08:17:40.688Z,24.35
2016-08-22T08:18:40.714Z,23.8
2016-08-22T08:19:40.744Z,23.7
2016-08-22T08:20:40.779Z,23.23
2016-08-22T08:21:55.742Z,23.25
2016-08-22T08:22:55.768Z,22.92
2016-08-22T08:23:40.867Z,22.92
2016-08-22T08:24:40.904Z,22.83
2016-08-22T08:25:55.868Z,23.19
2016-08-22T08:26:40.966Z,23.6
2016-08-22T08:27:41.010Z,23.91
2016-08-22T08:28:41.027Z,23.72
2016-08-22T08:29:41.054Z,23.05
2016-08-22T08:30:41.088Z,23.02
2016-08-22T08:31:41.113Z,22.97
2016-08-22T08:32:41.145Z,22.75
2016-08-22T08:33:41.179Z,22.54
2016-08-22T08:34:41.216Z,22.51
2016-08-22T08:35:41.239Z,22.7
2016-08-22T08:36:41.271Z,22.67
2016-08-22T08:38:41.328Z,23.07
2016-08-22T08:39:41.374Z,23.58
2016-08-22T08:40:56.368Z,23.95
2016-08-22T08:41:41.428Z,24.13
2016-08-22T08:42:41.456Z,24.1
2016-08-22T08:43:41.499Z,23.66
2016-08-22T08:44:41.520Z,23.46
2016-08-22T08:45:41.547Z,23.69
2016-08-22T08:47:41.607Z,24.42
2016-08-22T08:48:41.639Z,24.47
2016-08-22T08:49:41.672Z,25.09
2016-08-22T08:50:41.703Z,25.76
2016-08-22T08:51:41.733Z,26.28
2016-08-22T08:52:41.763Z,26.54
2016-08-22T08:54:41.832Z,26.62
2016-08-22T08:56:41.893Z,27
2016-08-22T08:57:41.926Z,26.89
2016-08-22T08:58:41.954Z,26.67
2016-08-22T08:59:41.998Z,26.18
2016-08-22T09:00:42.029Z,25.77
2016-08-22T09:01:42.053Z,25.5
2016-08-22T09:02:42.094Z,25.25
2016-08-22T09:03:42.128Z,25.03
2016-08-22T09:04:42.167Z,24.65
2016-08-22T09:05:42.190Z,24.39
2016-08-22T09:06:42.233Z,24.37
2016-08-22T09:07:57.181Z,24.27
2016-08-22T09:08:42.291Z,24.22
2016-08-22T09:10:42.343Z,24.2
2016-08-22T09:11:42.378Z,23.91
2016-08-22T09:12:57.339Z,23.83
2016-08-22T09:13:42.439Z,23.84
2016-08-22T09:14:42.473Z,23.97
2016-08-22T09:15:42.501Z,24.02
2016-08-22T09:16:42.535Z,24.12
2016-08-22T09:17:42.570Z,24.1
2016-08-22T09:18:42.601Z,23.95
2016-08-22T09:19:42.627Z,24.34
2016-08-22T09:20:42.657Z,24.34
2016-08-22T09:21:42.690Z,24.21
2016-08-22T09:22:42.717Z,24.31
2016-08-22T09:23:42.743Z,24.45
2016-08-22T09:24:42.784Z,24.46
2016-08-22T09:25:42.811Z,24.5
2016-08-22T09:26:57.768Z,24.96
2016-08-22T09:27:42.873Z,25.5
2016-08-22T09:28:57.830Z,25.6
2016-08-22T09:29:57.857Z,25.35
2016-08-22T09:30:42.966Z,25.25
2016-08-22T09:31:42.999Z,25.52
2016-08-22T09:32:43.031Z,25.9
2016-08-22T09:33:43.056Z,26.18
2016-08-22T09:34:43.090Z,25.94
2016-08-22T09:35:43.121Z,25.8
2016-08-22T09:36:43.153Z,25.92
2016-08-22T09:37:43.190Z,25.77
2016-08-22T09:38:43.220Z,25.87
2016-08-22T09:39:43.238Z,25.61
2016-08-22T09:40:43.282Z,25.51
2016-08-22T09:41:43.309Z,25.28
2016-08-22T09:42:43.336Z,25.14
2016-08-22T09:43:43.378Z,24.8
2016-08-22T09:44:58.326Z,24.65
2016-08-22T09:45:43.424Z,24.4
2016-08-22T09:46:43.460Z,24.95
2016-08-22T09:47:43.496Z,25.45
2016-08-22T09:48:43.514Z,25.75
2016-08-22T09:49:44.613Z,25.55
2016-08-22T09:50:43.586Z,25.58
2016-08-22T09:51:43.615Z,25.62
2016-08-22T09:52:43.691Z,25.35
2016-08-22T09:53:43.675Z,25.58
2016-08-22T09:54:43.709Z,25.8
2016-08-22T09:55:43.738Z,25.9
2016-08-22T09:56:58.697Z,26.05
2016-08-22T09:57:43.795Z,26.09
2016-08-22T09:58:43.881Z,26.17
2016-08-22T09:59:43.860Z,26.32
2016-08-22T10:00:58.814Z,26.58
2016-08-22T10:01:58.846Z,26.72
2016-08-22T10:02:43.959Z,26.87
2016-08-22T10:03:43.983Z,26.58
2016-08-22T10:04:44.031Z,26.6
2016-08-22T10:05:44.043Z,26.73
2016-08-22T10:06:44.072Z,26.8
2016-08-22T10:07:44.111Z,27.25
2016-08-22T10:08:44.138Z,27.67
2016-08-22T10:09:44.169Z,28.14
2016-08-22T10:10:44.220Z,28.56
2016-08-22T10:11:44.234Z,28.71
2016-08-22T10:12:59.192Z,29
2016-08-22T10:13:44.301Z,28.98
2016-08-22T10:14:44.331Z,28.66
2016-08-22T10:15:59.284Z,28.43
2016-08-22T10:16:44.398Z,28.37
2016-08-22T10:17:44.429Z,28.29
2016-08-22T10:18:44.461Z,28.15
2016-08-22T10:19:44.492Z,27.7
2016-08-22T10:20:44.521Z,27.47
2016-08-22T10:21:44.556Z,27.57
2016-08-22T10:22:44.591Z,27.47
2016-08-22T10:23:44.617Z,27.46
2016-08-22T10:24:44.652Z,26.89
2016-08-22T10:25:44.681Z,26.52
2016-08-22T10:26:44.714Z,26.13
2016-08-22T10:27:59.680Z,26.05
2016-08-22T10:30:44.845Z,25.79
2016-08-22T10:31:59.797Z,25.43
2016-08-22T10:32:59.827Z,25.03
2016-08-22T10:33:44.940Z,24.55
2016-08-22T10:34:44.970Z,24.1
2016-08-22T10:35:45.012Z,24.34
2016-08-22T10:36:45.035Z,24.5
2016-08-22T10:37:45.069Z,24.84
2016-08-22T10:38:45.096Z,25.14
2016-08-22T10:39:45.128Z,25.15
2016-08-22T10:40:45.160Z,25.2
2016-08-22T10:41:45.186Z,25.35
2016-08-22T10:42:45.218Z,25.58
2016-08-22T10:43:45.249Z,25.42
2016-08-22T10:44:45.285Z,25.62
2016-08-22T10:45:45.315Z,25.82
2016-08-22T10:46:45.340Z,25.95
2016-08-22T10:48:00.297Z,26.2
2016-08-22T10:48:45.412Z,25.94
2016-08-22T10:49:45.437Z,25.88
2016-08-22T10:50:45.490Z,25.79
2016-08-22T10:51:45.500Z,26.02
2016-08-22T10:52:45.576Z,25.92
2016-08-22T10:53:45.561Z,25.73
2016-08-22T10:54:45.589Z,25.52
2016-08-22T10:55:45.620Z,25.64
2016-08-22T10:56:45.708Z,25.58
2016-08-22T10:57:45.681Z,25.39
2016-08-22T10:59:45.804Z,25.18
2016-08-22T11:00:45.780Z,24.99
2016-08-22T11:01:45.804Z,25.05
2016-08-22T11:02:45.836Z,25.28
2016-08-22T11:04:00.794Z,25.2
2016-08-22T11:04:45.904Z,25.38
2016-08-22T11:05:45.941Z,25.55
2016-08-22T11:06:45.967Z,25.45
2016-08-22T11:07:45.992Z,25.43
2016-08-22T11:08:46.021Z,25.33
2016-08-22T11:09:46.053Z,25.25
2016-08-22T11:10:46.090Z,25.18
2016-08-22T11:11:46.119Z,25.36
2016-08-22T11:12:46.145Z,25.47
2016-08-22T11:13:46.179Z,25.47
2016-08-22T11:14:46.204Z,25.54
2016-08-22T11:15:46.234Z,25.8
2016-08-22T11:17:01.193Z,25.87
2016-08-22T11:17:46.296Z,25.73
2016-08-22T11:18:46.334Z,25.75
2016-08-22T11:20:01.281Z,25.62
2016-08-22T11:21:01.312Z,25.36
2016-08-22T11:21:46.419Z,25.28
2016-08-22T11:22:46.449Z,25.47
2016-08-22T11:23:46.479Z,25.55
2016-08-22T11:24:46.516Z,25.45
2016-08-22T11:25:46.541Z,25.3
2016-08-22T11:26:46.580Z,25.3
2016-08-22T11:28:46.635Z,25.08
2016-08-22T11:29:46.661Z,25.18
2016-08-22T11:30:46.694Z,25.4
2016-08-22T11:31:46.719Z,25.75
2016-08-22T11:32:46.757Z,25.77
2016-08-22T11:33:47.485Z,25.77
2016-08-22T11:34:46.818Z,25.5
2016-08-22T11:36:01.766Z,25.47
2016-08-22T11:36:47.567Z,25.47
2016-08-22T11:37:46.899Z,25.36
2016-08-22T11:38:46.933Z,25.51
2016-08-22T11:39:46.969Z,25.65
2016-08-22T11:40:46.997Z,25.82
2016-08-22T11:41:47.026Z,26.02
2016-08-22T11:42:47.050Z,26.02
2016-08-22T11:43:47.082Z,26.05
2016-08-22T11:44:47.118Z,26.18
2016-08-22T11:45:47.150Z,26.45
2016-08-22T11:48:02.134Z,26.43
2016-08-22T11:51:02.226Z,26.52
2016-08-22T11:51:47.341Z,26.4
2016-08-22T11:53:02.279Z,26.28
2016-08-22T11:53:47.390Z,26.28
2016-08-22T11:54:47.421Z,26.3
2016-08-22T11:55:47.446Z,26.44
2016-08-22T11:56:47.528Z,26.3
2016-08-22T11:57:47.513Z,26.1
2016-08-22T11:58:47.543Z,26.18
2016-08-22T12:01:02.578Z,26.01
2016-08-22T12:01:47.631Z,26.25
2016-08-22T12:03:02.590Z,26.32
2016-08-22T12:04:47.720Z,26.35
2016-08-22T12:05:48.011Z,26.18
2016-08-22T12:07:03.409Z,25.77
2016-08-22T12:07:47.813Z,25.64
2016-08-22T12:08:47.843Z,25.72
2016-08-22T12:09:47.874Z,25.69
2016-08-22T12:10:47.915Z,25.61
2016-08-22T12:11:47.936Z,25.58
2016-08-22T12:12:47.966Z,25.7
2016-08-22T12:13:48.001Z,25.92
2016-08-22T12:14:48.027Z,26.06
2016-08-22T12:15:48.057Z,25.85
2016-08-22T12:16:48.080Z,26.05
2016-08-22T12:17:48.814Z,25.97
2016-08-22T12:18:48.151Z,26.02
2016-08-22T12:19:48.174Z,25.76
2016-08-22T12:20:48.216Z,25.6
2016-08-22T12:21:48.237Z,25.6
2016-08-22T12:23:03.190Z,25.6
2016-08-22T12:23:48.301Z,25.6
2016-08-22T12:24:48.332Z,25.72
2016-08-22T12:25:48.362Z,25.69
2016-08-22T12:26:48.384Z,25.91
2016-08-22T12:27:48.431Z,25.92
2016-08-22T12:28:48.446Z,26.02
2016-08-22T12:29:48.480Z,26.09
2016-08-22T12:30:48.508Z,26.26
2016-08-22T12:31:48.539Z,26.2
2016-08-22T12:32:48.572Z,26.23
2016-08-22T12:33:48.802Z,26.35
2016-08-22T12:34:48.635Z,26.17
2016-08-22T12:36:03.584Z,26.3
2016-08-22T12:36:48.694Z,26.43
2016-08-22T12:37:48.722Z,26.35
2016-08-22T12:39:03.676Z,26.44
2016-08-22T12:39:48.785Z,26.3
2016-08-22T12:40:48.812Z,26.4
2016-08-22T12:41:48.845Z,26.6
2016-08-22T12:42:48.877Z,26.6
2016-08-22T12:43:48.899Z,26.7
2016-08-22T12:44:48.941Z,26.7
2016-08-22T12:45:48.965Z,26.52
2016-08-22T12:46:48.995Z,26.43
2016-08-22T12:47:49.018Z,26.2
2016-08-22T12:48:50.459Z,26.17
2016-08-22T12:49:49.797Z,26.26
2016-08-22T12:50:49.117Z,26.35
2016-08-22T12:52:04.069Z,26.21
2016-08-22T12:52:49.168Z,26.09
2016-08-22T12:53:49.210Z,26.3
2016-08-22T12:55:04.155Z,26.21
2016-08-22T12:55:49.263Z,26.07
2016-08-22T12:56:49.297Z,26.06
2016-08-22T12:58:49.355Z,26.02
2016-08-22T12:59:49.382Z,26.07
2016-08-22T13:00:49.409Z,26.18
2016-08-22T13:01:49.442Z,26.33
2016-08-22T13:02:49.479Z,26.44
2016-08-22T13:03:49.506Z,26.43
2016-08-22T13:04:49.530Z,26.4
2016-08-22T13:05:49.569Z,26.44
2016-08-22T13:06:49.604Z,26.3
2016-08-22T13:07:49.628Z,26.05
2016-08-22T13:08:49.656Z,26.06
2016-08-22T13:09:49.687Z,26.13
2016-08-22T13:11:04.639Z,26.29
2016-08-22T13:11:49.741Z,26.33
2016-08-22T13:12:49.778Z,26.06
2016-08-22T13:13:49.825Z,25.8
2016-08-22T13:14:49.841Z,25.69
2016-08-22T13:15:49.867Z,25.51
2016-08-22T13:16:49.892Z,25.47
2016-08-22T13:17:49.926Z,25.45
2016-08-22T13:18:49.958Z,25.54
2016-08-22T13:19:49.983Z,25.73
2016-08-22T13:20:50.726Z,25.87
2016-08-22T13:21:50.045Z,25.98
2016-08-22T13:22:50.078Z,26.07
2016-08-22T13:23:50.105Z,26.28
2016-08-22T13:24:50.137Z,26.28
2016-08-22T13:26:05.099Z,26.32
2016-08-22T13:26:50.192Z,26.33
2016-08-22T13:27:50.233Z,26.44
2016-08-22T13:28:50.256Z,26.4
2016-08-22T13:29:50.292Z,26.47
2016-08-22T13:30:50.318Z,26.45
2016-08-22T13:31:50.341Z,26.6
2016-08-22T13:32:50.390Z,26.5
2016-08-22T13:33:50.404Z,26.43